sensor_id;sensor_type;location;lat;lon;timestamp;temperature;humidity
38456;DHT22;24237;50.106;20.014;2023-10-19T00:00:46;6.10;99.90
38456;DHT22;24237;50.106;20.014;2023-10-19T00:03:19;6.10;99.90
38456;DHT22;24237;50.106;20.014;2023-10-19T00:05:45;6.10;99.90
38456;DHT22;24237;50.106;20.014;2023-10-19T00:08:14;6.30;99.90
38456;DHT22;24237;50.106;20.014;2023-10-19T00:10:42;6.40;99.90
38456;DHT22;24237;50.106;20.014;2023-10-19T00:13:14;6.30;99.90
38456;DHT22;24237;50.106;20.014;2023-10-19T00:15:41;6.30;89.20
38456;DHT22;24237;50.106;20.014;2023-10-19T00:18:14;6.20;99.90
38456;DHT22;24237;50.106;20.014;2023-10-19T00:20:46;6.20;99.90
38456;DHT22;24237;50.106;20.014;2023-10-19T00:23:22;6.10;99.90
38456;DHT22;24237;50.106;20.014;2023-10-19T00:25:55;6.10;99.90
38456;DHT22;24237;50.106;20.014;2023-10-19T00:28:22;6.20;99.90
38456;DHT22;24237;50.106;20.014;2023-10-19T00:30:52;6.20;99.90
38456;DHT22;24237;50.106;20.014;2023-10-19T00:33:19;6.20;99.90
38456;DHT22;24237;50.106;20.014;2023-10-19T00:35:47;6.20;99.90
38456;DHT22;24237;50.106;20.014;2023-10-19T00:38:26;6.10;99.90
38456;DHT22;24237;50.106;20.014;2023-10-19T00:40:56;6.00;99.90
38456;DHT22;24237;50.106;20.014;2023-10-19T00:43:44;5.90;99.90
38456;DHT22;24237;50.106;20.014;2023-10-19T00:48:51;5.90;99.90
38456;DHT22;24237;50.106;20.014;2023-10-19T00:51:23;5.80;99.90
38456;DHT22;24237;50.106;20.014;2023-10-19T00:54:11;5.80;99.90
38456;DHT22;24237;50.106;20.014;2023-10-19T00:56:42;5.90;99.90
38456;DHT22;24237;50.106;20.014;2023-10-19T00:59:14;5.80;79.20
38456;DHT22;24237;50.106;20.014;2023-10-19T01:01:45;5.80;99.90
38456;DHT22;24237;50.106;20.014;2023-10-19T01:04:14;5.80;99.90
38456;DHT22;24237;50.106;20.014;2023-10-19T01:06:41;5.70;99.90
38456;DHT22;24237;50.106;20.014;2023-10-19T01:09:11;5.80;99.90
38456;DHT22;24237;50.106;20.014;2023-10-19T01:11:43;5.70;99.90
38456;DHT22;24237;50.106;20.014;2023-10-19T01:14:19;5.60;99.90
38456;DHT22;24237;50.106;20.014;2023-10-19T01:16:46;5.60;99.90
38456;DHT22;24237;50.106;20.014;2023-10-19T01:19:13;5.60;99.90
38456;DHT22;24237;50.106;20.014;2023-10-19T01:21:44;5.60;99.90
38456;DHT22;24237;50.106;20.014;2023-10-19T01:24:18;5.60;99.90
38456;DHT22;24237;50.106;20.014;2023-10-19T01:26:46;5.60;99.90
38456;DHT22;24237;50.106;20.014;2023-10-19T01:29:12;5.60;1.00
38456;DHT22;24237;50.106;20.014;2023-10-19T01:31:43;5.70;1.00
38456;DHT22;24237;50.106;20.014;2023-10-19T01:34:27;5.60;1.00
38456;DHT22;24237;50.106;20.014;2023-10-19T01:36:53;5.60;1.00
38456;DHT22;24237;50.106;20.014;2023-10-19T01:39:21;5.70;1.00
38456;DHT22;24237;50.106;20.014;2023-10-19T01:41:46;5.70;1.00
38456;DHT22;24237;50.106;20.014;2023-10-19T01:44:16;5.70;1.00
38456;DHT22;24237;50.106;20.014;2023-10-19T01:46:42;6.30;56.60
38456;DHT22;24237;50.106;20.014;2023-10-19T01:49:11;6.20;8.40
38456;DHT22;24237;50.106;20.014;2023-10-19T01:51:37;6.10;1.00
38456;DHT22;24237;50.106;20.014;2023-10-19T01:54:07;6.00;60.50
38456;DHT22;24237;50.106;20.014;2023-10-19T01:56:33;5.80;76.20
38456;DHT22;24237;50.106;20.014;2023-10-19T01:59:01;5.60;96.00
38456;DHT22;24237;50.106;20.014;2023-10-19T02:01:29;5.60;47.90
38456;DHT22;24237;50.106;20.014;2023-10-19T02:03:57;5.50;4.80
38456;DHT22;24237;50.106;20.014;2023-10-19T02:06:24;5.40;37.90
38456;DHT22;24237;50.106;20.014;2023-10-19T02:09:12;5.30;11.30
38456;DHT22;24237;50.106;20.014;2023-10-19T02:11:51;5.40;1.00
38456;DHT22;24237;50.106;20.014;2023-10-19T02:14:27;5.30;1.00
38456;DHT22;24237;50.106;20.014;2023-10-19T02:16:58;5.10;1.00
38456;DHT22;24237;50.106;20.014;2023-10-19T02:19:26;5.00;99.90
38456;DHT22;24237;50.106;20.014;2023-10-19T02:21:54;5.10;99.90
38456;DHT22;24237;50.106;20.014;2023-10-19T02:24:21;5.10;99.90
38456;DHT22;24237;50.106;20.014;2023-10-19T02:26:51;5.10;99.90
38456;DHT22;24237;50.106;20.014;2023-10-19T02:29:17;5.10;99.90
38456;DHT22;24237;50.106;20.014;2023-10-19T02:31:44;5.10;99.90
38456;DHT22;24237;50.106;20.014;2023-10-19T02:34:11;5.20;1.00
38456;DHT22;24237;50.106;20.014;2023-10-19T02:36:41;5.20;1.00
38456;DHT22;24237;50.106;20.014;2023-10-19T02:39:08;5.20;1.00
38456;DHT22;24237;50.106;20.014;2023-10-19T02:44:04;5.20;99.90
38456;DHT22;24237;50.106;20.014;2023-10-19T02:46:30;5.10;66.30
38456;DHT22;24237;50.106;20.014;2023-10-19T02:49:03;5.00;48.90
38456;DHT22;24237;50.106;20.014;2023-10-19T02:51:30;4.90;52.90
38456;DHT22;24237;50.106;20.014;2023-10-19T02:53:56;4.80;99.90
38456;DHT22;24237;50.106;20.014;2023-10-19T02:56:24;4.80;99.90
38456;DHT22;24237;50.106;20.014;2023-10-19T02:58:52;4.80;99.90
38456;DHT22;24237;50.106;20.014;2023-10-19T03:01:19;4.80;99.90
38456;DHT22;24237;50.106;20.014;2023-10-19T03:03:49;4.80;99.90
38456;DHT22;24237;50.106;20.014;2023-10-19T03:06:18;4.80;99.90
38456;DHT22;24237;50.106;20.014;2023-10-19T03:08:46;4.70;99.90
38456;DHT22;24237;50.106;20.014;2023-10-19T03:11:13;4.70;99.90
38456;DHT22;24237;50.106;20.014;2023-10-19T03:13:39;4.60;99.90
38456;DHT22;24237;50.106;20.014;2023-10-19T03:16:06;4.70;99.90
38456;DHT22;24237;50.106;20.014;2023-10-19T03:18:36;4.60;99.90
38456;DHT22;24237;50.106;20.014;2023-10-19T03:21:03;4.60;99.90
38456;DHT22;24237;50.106;20.014;2023-10-19T03:23:28;4.60;99.90
38456;DHT22;24237;50.106;20.014;2023-10-19T03:25:56;4.60;99.90
38456;DHT22;24237;50.106;20.014;2023-10-19T03:28:40;4.50;99.90
38456;DHT22;24237;50.106;20.014;2023-10-19T03:31:06;4.50;99.90
38456;DHT22;24237;50.106;20.014;2023-10-19T03:33:33;4.40;99.90
38456;DHT22;24237;50.106;20.014;2023-10-19T03:36:02;4.30;99.90
38456;DHT22;24237;50.106;20.014;2023-10-19T03:38:29;4.20;99.90
38456;DHT22;24237;50.106;20.014;2023-10-19T03:40:59;4.10;99.90
38456;DHT22;24237;50.106;20.014;2023-10-19T03:43:33;4.10;1.00
38456;DHT22;24237;50.106;20.014;2023-10-19T03:45:58;4.20;1.00
38456;DHT22;24237;50.106;20.014;2023-10-19T03:48:29;4.40;99.90
38456;DHT22;24237;50.106;20.014;2023-10-19T03:51:01;4.30;99.90
38456;DHT22;24237;50.106;20.014;2023-10-19T03:53:28;4.30;1.00
38456;DHT22;24237;50.106;20.014;2023-10-19T03:55:54;4.30;1.00
38456;DHT22;24237;50.106;20.014;2023-10-19T03:58:20;4.30;1.00
38456;DHT22;24237;50.106;20.014;2023-10-19T04:00:47;4.30;1.00
38456;DHT22;24237;50.106;20.014;2023-10-19T04:03:18;4.50;1.00
38456;DHT22;24237;50.106;20.014;2023-10-19T04:05:44;4.40;1.00
38456;DHT22;24237;50.106;20.014;2023-10-19T04:08:13;4.60;1.00
38456;DHT22;24237;50.106;20.014;2023-10-19T04:10:41;4.70;1.00
38456;DHT22;24237;50.106;20.014;2023-10-19T04:13:11;4.70;1.00
38456;DHT22;24237;50.106;20.014;2023-10-19T04:15:37;4.70;1.00
38456;DHT22;24237;50.106;20.014;2023-10-19T04:18:03;4.80;1.00
38456;DHT22;24237;50.106;20.014;2023-10-19T04:20:35;4.90;99.90
38456;DHT22;24237;50.106;20.014;2023-10-19T04:23:14;4.80;99.90
38456;DHT22;24237;50.106;20.014;2023-10-19T04:25:40;4.90;99.90
38456;DHT22;24237;50.106;20.014;2023-10-19T04:28:06;4.90;99.90
38456;DHT22;24237;50.106;20.014;2023-10-19T04:30:32;4.90;99.90
38456;DHT22;24237;50.106;20.014;2023-10-19T04:32:59;5.10;99.90
38456;DHT22;24237;50.106;20.014;2023-10-19T04:35:27;5.10;99.90
38456;DHT22;24237;50.106;20.014;2023-10-19T04:37:58;5.10;99.90
38456;DHT22;24237;50.106;20.014;2023-10-19T04:40:23;5.20;99.90
38456;DHT22;24237;50.106;20.014;2023-10-19T04:42:51;5.30;99.90
38456;DHT22;24237;50.106;20.014;2023-10-19T04:45:17;5.30;99.90
38456;DHT22;24237;50.106;20.014;2023-10-19T04:47:43;5.40;99.90
38456;DHT22;24237;50.106;20.014;2023-10-19T04:50:10;5.40;58.40
38456;DHT22;24237;50.106;20.014;2023-10-19T04:52:36;5.50;99.90
38456;DHT22;24237;50.106;20.014;2023-10-19T04:55:02;5.60;1.00
38456;DHT22;24237;50.106;20.014;2023-10-19T04:57:28;5.80;99.90
38456;DHT22;24237;50.106;20.014;2023-10-19T04:59:54;5.90;99.90
38456;DHT22;24237;50.106;20.014;2023-10-19T05:02:20;5.90;99.90
38456;DHT22;24237;50.106;20.014;2023-10-19T05:04:46;6.00;99.90
38456;DHT22;24237;50.106;20.014;2023-10-19T05:07:12;6.00;95.60
38456;DHT22;24237;50.106;20.014;2023-10-19T05:09:40;5.90;43.30
38456;DHT22;24237;50.106;20.014;2023-10-19T05:12:06;5.90;99.90
38456;DHT22;24237;50.106;20.014;2023-10-19T05:14:38;6.00;99.90
38456;DHT22;24237;50.106;20.014;2023-10-19T05:17:05;6.10;99.90
38456;DHT22;24237;50.106;20.014;2023-10-19T05:19:33;6.10;99.90
38456;DHT22;24237;50.106;20.014;2023-10-19T05:22:00;6.40;54.50
38456;DHT22;24237;50.106;20.014;2023-10-19T05:24:26;6.20;1.00
38456;DHT22;24237;50.106;20.014;2023-10-19T05:26:53;6.20;99.90
38456;DHT22;24237;50.106;20.014;2023-10-19T05:29:19;6.40;1.00
38456;DHT22;24237;50.106;20.014;2023-10-19T05:31:45;6.30;1.00
38456;DHT22;24237;50.106;20.014;2023-10-19T05:34:11;6.30;99.90
38456;DHT22;24237;50.106;20.014;2023-10-19T05:36:36;6.10;99.90
38456;DHT22;24237;50.106;20.014;2023-10-19T05:39:02;6.30;99.90
38456;DHT22;24237;50.106;20.014;2023-10-19T05:41:29;6.30;1.00
38456;DHT22;24237;50.106;20.014;2023-10-19T05:43:56;6.40;1.00
38456;DHT22;24237;50.106;20.014;2023-10-19T05:46:22;6.50;21.00
38456;DHT22;24237;50.106;20.014;2023-10-19T05:48:50;6.70;99.90
38456;DHT22;24237;50.106;20.014;2023-10-19T05:51:16;6.90;99.90
38456;DHT22;24237;50.106;20.014;2023-10-19T05:53:42;6.90;13.30
38456;DHT22;24237;50.106;20.014;2023-10-19T05:56:10;6.80;99.90
38456;DHT22;24237;50.106;20.014;2023-10-19T05:58:36;7.20;1.00
38456;DHT22;24237;50.106;20.014;2023-10-19T06:01:02;7.00;1.00
38456;DHT22;24237;50.106;20.014;2023-10-19T06:03:27;7.00;12.00
38456;DHT22;24237;50.106;20.014;2023-10-19T06:05:53;7.00;1.00
38456;DHT22;24237;50.106;20.014;2023-10-19T06:08:24;6.80;99.90
38456;DHT22;24237;50.106;20.014;2023-10-19T06:10:51;7.00;1.00
38456;DHT22;24237;50.106;20.014;2023-10-19T06:13:17;7.00;1.00
38456;DHT22;24237;50.106;20.014;2023-10-19T06:15:43;7.10;1.00
38456;DHT22;24237;50.106;20.014;2023-10-19T06:18:09;6.80;1.00
38456;DHT22;24237;50.106;20.014;2023-10-19T06:20:36;7.10;1.00
38456;DHT22;24237;50.106;20.014;2023-10-19T06:23:02;7.20;1.00
38456;DHT22;24237;50.106;20.014;2023-10-19T06:25:32;7.50;1.00
38456;DHT22;24237;50.106;20.014;2023-10-19T06:28:00;7.40;99.90
38456;DHT22;24237;50.106;20.014;2023-10-19T06:30:27;7.40;99.90
38456;DHT22;24237;50.106;20.014;2023-10-19T06:32:57;7.30;1.00
38456;DHT22;24237;50.106;20.014;2023-10-19T06:35:27;7.60;99.90
38456;DHT22;24237;50.106;20.014;2023-10-19T06:37:53;7.90;99.90
38456;DHT22;24237;50.106;20.014;2023-10-19T06:40:20;8.10;99.90
38456;DHT22;24237;50.106;20.014;2023-10-19T06:42:47;7.80;99.90
38456;DHT22;24237;50.106;20.014;2023-10-19T06:45:15;8.00;99.90
38456;DHT22;24237;50.106;20.014;2023-10-19T06:47:44;8.30;99.90
38456;DHT22;24237;50.106;20.014;2023-10-19T06:50:11;8.30;99.90
38456;DHT22;24237;50.106;20.014;2023-10-19T06:52:39;8.60;58.90
38456;DHT22;24237;50.106;20.014;2023-10-19T06:55:06;8.80;1.00
38456;DHT22;24237;50.106;20.014;2023-10-19T06:57:52;8.50;97.90
38456;DHT22;24237;50.106;20.014;2023-10-19T07:00:20;8.80;99.90
38456;DHT22;24237;50.106;20.014;2023-10-19T07:02:46;9.00;1.00
38456;DHT22;24237;50.106;20.014;2023-10-19T07:05:13;9.00;1.00
38456;DHT22;24237;50.106;20.014;2023-10-19T07:07:42;8.90;1.00
38456;DHT22;24237;50.106;20.014;2023-10-19T07:10:09;8.90;1.00
38456;DHT22;24237;50.106;20.014;2023-10-19T07:12:42;8.90;1.00
38456;DHT22;24237;50.106;20.014;2023-10-19T07:15:08;9.00;1.00
38456;DHT22;24237;50.106;20.014;2023-10-19T07:17:37;8.80;1.00
38456;DHT22;24237;50.106;20.014;2023-10-19T07:20:07;9.10;5.10
38456;DHT22;24237;50.106;20.014;2023-10-19T07:22:35;9.40;1.00
38456;DHT22;24237;50.106;20.014;2023-10-19T07:25:05;9.50;99.90
38456;DHT22;24237;50.106;20.014;2023-10-19T07:27:32;9.50;99.90
38456;DHT22;24237;50.106;20.014;2023-10-19T07:29:59;9.70;99.90
38456;DHT22;24237;50.106;20.014;2023-10-19T07:32:25;9.80;99.90
38456;DHT22;24237;50.106;20.014;2023-10-19T07:34:50;10.00;99.90
38456;DHT22;24237;50.106;20.014;2023-10-19T07:37:16;10.20;99.90
38456;DHT22;24237;50.106;20.014;2023-10-19T07:39:46;10.30;99.90
38456;DHT22;24237;50.106;20.014;2023-10-19T07:42:11;10.50;99.90
38456;DHT22;24237;50.106;20.014;2023-10-19T07:44:37;11.10;99.90
38456;DHT22;24237;50.106;20.014;2023-10-19T07:47:03;11.50;1.00
38456;DHT22;24237;50.106;20.014;2023-10-19T07:49:28;11.10;1.00
38456;DHT22;24237;50.106;20.014;2023-10-19T07:51:54;11.30;1.00
38456;DHT22;24237;50.106;20.014;2023-10-19T07:54:20;11.50;99.90
38456;DHT22;24237;50.106;20.014;2023-10-19T07:56:46;11.80;99.90
38456;DHT22;24237;50.106;20.014;2023-10-19T07:59:12;11.60;99.90
38456;DHT22;24237;50.106;20.014;2023-10-19T08:01:38;11.80;96.90
38456;DHT22;24237;50.106;20.014;2023-10-19T08:04:04;11.50;62.20
38456;DHT22;24237;50.106;20.014;2023-10-19T08:06:31;11.10;95.10
38456;DHT22;24237;50.106;20.014;2023-10-19T08:08:57;11.50;86.80
38456;DHT22;24237;50.106;20.014;2023-10-19T08:11:23;11.90;56.10
38456;DHT22;24237;50.106;20.014;2023-10-19T08:13:50;12.10;1.00
38456;DHT22;24237;50.106;20.014;2023-10-19T08:16:15;11.90;1.00
38456;DHT22;24237;50.106;20.014;2023-10-19T08:18:42;11.80;1.00
38456;DHT22;24237;50.106;20.014;2023-10-19T08:21:08;11.80;1.00
38456;DHT22;24237;50.106;20.014;2023-10-19T08:23:33;11.80;1.00
38456;DHT22;24237;50.106;20.014;2023-10-19T08:25:59;12.30;1.00
38456;DHT22;24237;50.106;20.014;2023-10-19T08:28:25;12.40;1.00
38456;DHT22;24237;50.106;20.014;2023-10-19T08:30:51;12.50;1.00
38456;DHT22;24237;50.106;20.014;2023-10-19T08:33:24;12.50;99.90
38456;DHT22;24237;50.106;20.014;2023-10-19T08:35:54;12.70;99.90
38456;DHT22;24237;50.106;20.014;2023-10-19T08:38:20;12.70;99.90
38456;DHT22;24237;50.106;20.014;2023-10-19T08:40:47;12.70;99.90
38456;DHT22;24237;50.106;20.014;2023-10-19T08:43:14;12.20;99.90
38456;DHT22;24237;50.106;20.014;2023-10-19T08:45:43;12.40;99.90
38456;DHT22;24237;50.106;20.014;2023-10-19T08:48:10;12.60;99.90
38456;DHT22;24237;50.106;20.014;2023-10-19T08:50:37;12.90;99.90
38456;DHT22;24237;50.106;20.014;2023-10-19T08:53:04;12.40;99.90
38456;DHT22;24237;50.106;20.014;2023-10-19T08:55:30;12.20;99.90
38456;DHT22;24237;50.106;20.014;2023-10-19T08:57:56;12.30;99.90
38456;DHT22;24237;50.106;20.014;2023-10-19T09:00:24;12.40;99.90
38456;DHT22;24237;50.106;20.014;2023-10-19T09:02:52;12.50;99.90
38456;DHT22;24237;50.106;20.014;2023-10-19T09:05:18;12.70;99.90
38456;DHT22;24237;50.106;20.014;2023-10-19T09:07:52;12.90;99.90
38456;DHT22;24237;50.106;20.014;2023-10-19T09:10:22;13.10;99.90
38456;DHT22;24237;50.106;20.014;2023-10-19T09:15:29;13.10;60.90
38456;DHT22;24237;50.106;20.014;2023-10-19T09:18:14;13.10;68.20
38456;DHT22;24237;50.106;20.014;2023-10-19T09:20:40;13.30;67.30
38456;DHT22;24237;50.106;20.014;2023-10-19T09:23:08;13.20;1.00
38456;DHT22;24237;50.106;20.014;2023-10-19T09:25:33;13.70;1.00
38456;DHT22;24237;50.106;20.014;2023-10-19T09:28:01;13.20;1.00
38456;DHT22;24237;50.106;20.014;2023-10-19T09:30:29;12.90;1.00
38456;DHT22;24237;50.106;20.014;2023-10-19T09:32:57;12.80;1.00
38456;DHT22;24237;50.106;20.014;2023-10-19T09:35:25;12.70;1.00
38456;DHT22;24237;50.106;20.014;2023-10-19T09:37:53;12.90;1.00
38456;DHT22;24237;50.106;20.014;2023-10-19T09:40:19;13.10;1.00
38456;DHT22;24237;50.106;20.014;2023-10-19T09:42:47;13.30;1.00
38456;DHT22;24237;50.106;20.014;2023-10-19T09:45:19;13.50;1.00
38456;DHT22;24237;50.106;20.014;2023-10-19T09:47:50;13.70;1.00
38456;DHT22;24237;50.106;20.014;2023-10-19T09:50:19;13.50;1.00
38456;DHT22;24237;50.106;20.014;2023-10-19T09:52:45;12.90;1.00
38456;DHT22;24237;50.106;20.014;2023-10-19T09:58:19;12.90;1.00
38456;DHT22;24237;50.106;20.014;2023-10-19T10:00:47;13.30;1.00
38456;DHT22;24237;50.106;20.014;2023-10-19T10:03:42;13.10;1.00
38456;DHT22;24237;50.106;20.014;2023-10-19T10:06:08;13.20;1.00
38456;DHT22;24237;50.106;20.014;2023-10-19T10:08:36;13.20;1.00
38456;DHT22;24237;50.106;20.014;2023-10-19T10:11:21;13.40;1.00
38456;DHT22;24237;50.106;20.014;2023-10-19T10:13:48;13.60;1.00
38456;DHT22;24237;50.106;20.014;2023-10-19T10:16:27;13.70;1.00
38456;DHT22;24237;50.106;20.014;2023-10-19T10:19:04;13.60;1.00
38456;DHT22;24237;50.106;20.014;2023-10-19T10:21:30;13.70;1.00
38456;DHT22;24237;50.106;20.014;2023-10-19T10:24:00;13.80;1.00
38456;DHT22;24237;50.106;20.014;2023-10-19T10:26:30;13.90;1.00
38456;DHT22;24237;50.106;20.014;2023-10-19T10:29:21;13.80;1.00
38456;DHT22;24237;50.106;20.014;2023-10-19T10:31:49;13.90;1.00
38456;DHT22;24237;50.106;20.014;2023-10-19T10:37:01;13.90;1.00
38456;DHT22;24237;50.106;20.014;2023-10-19T10:39:31;13.80;1.00
38456;DHT22;24237;50.106;20.014;2023-10-19T10:41:58;13.80;1.00
38456;DHT22;24237;50.106;20.014;2023-10-19T10:44:37;13.80;1.00
38456;DHT22;24237;50.106;20.014;2023-10-19T10:47:10;14.00;1.00
38456;DHT22;24237;50.106;20.014;2023-10-19T10:49:56;14.00;1.00
38456;DHT22;24237;50.106;20.014;2023-10-19T10:52:29;14.20;1.00
38456;DHT22;24237;50.106;20.014;2023-10-19T10:55:06;14.30;1.00
38456;DHT22;24237;50.106;20.014;2023-10-19T10:57:33;14.20;1.00
38456;DHT22;24237;50.106;20.014;2023-10-19T11:00:17;14.10;4.50
38456;DHT22;24237;50.106;20.014;2023-10-19T11:02:46;14.20;8.70
38456;DHT22;24237;50.106;20.014;2023-10-19T11:05:16;14.20;1.00
38456;DHT22;24237;50.106;20.014;2023-10-19T11:08:02;13.90;80.20
38456;DHT22;24237;50.106;20.014;2023-10-19T11:10:29;14.10;99.90
38456;DHT22;24237;50.106;20.014;2023-10-19T11:13:06;14.10;99.90
38456;DHT22;24237;50.106;20.014;2023-10-19T11:15:33;14.00;99.90
38456;DHT22;24237;50.106;20.014;2023-10-19T11:17:59;14.30;99.90
38456;DHT22;24237;50.106;20.014;2023-10-19T11:20:25;14.50;99.90
38456;DHT22;24237;50.106;20.014;2023-10-19T11:22:52;14.10;99.90
38456;DHT22;24237;50.106;20.014;2023-10-19T11:25:25;14.30;99.90
38456;DHT22;24237;50.106;20.014;2023-10-19T11:27:58;14.10;99.90
38456;DHT22;24237;50.106;20.014;2023-10-19T11:30:25;14.40;99.90
38456;DHT22;24237;50.106;20.014;2023-10-19T11:32:50;14.40;99.90
38456;DHT22;24237;50.106;20.014;2023-10-19T11:35:19;14.50;99.90
38456;DHT22;24237;50.106;20.014;2023-10-19T11:37:51;14.50;99.90
38456;DHT22;24237;50.106;20.014;2023-10-19T11:40:22;14.40;99.90
38456;DHT22;24237;50.106;20.014;2023-10-19T11:42:48;14.50;99.90
38456;DHT22;24237;50.106;20.014;2023-10-19T11:45:14;14.40;99.90
38456;DHT22;24237;50.106;20.014;2023-10-19T11:47:44;14.30;99.90
38456;DHT22;24237;50.106;20.014;2023-10-19T11:50:13;14.20;99.90
38456;DHT22;24237;50.106;20.014;2023-10-19T11:52:44;14.00;99.90
38456;DHT22;24237;50.106;20.014;2023-10-19T11:55:11;14.30;1.00
38456;DHT22;24237;50.106;20.014;2023-10-19T11:57:39;14.30;1.00
38456;DHT22;24237;50.106;20.014;2023-10-19T12:00:06;14.40;1.00
38456;DHT22;24237;50.106;20.014;2023-10-19T12:02:37;14.60;1.00
38456;DHT22;24237;50.106;20.014;2023-10-19T12:05:07;14.70;1.00
38456;DHT22;24237;50.106;20.014;2023-10-19T12:07:37;14.60;1.00
38456;DHT22;24237;50.106;20.014;2023-10-19T12:10:05;14.50;1.00
38456;DHT22;24237;50.106;20.014;2023-10-19T12:12:31;14.70;1.00
38456;DHT22;24237;50.106;20.014;2023-10-19T12:14:56;14.60;1.00
38456;DHT22;24237;50.106;20.014;2023-10-19T12:17:23;14.50;1.00
38456;DHT22;24237;50.106;20.014;2023-10-19T12:19:51;14.60;1.00
38456;DHT22;24237;50.106;20.014;2023-10-19T12:22:17;14.40;24.50
38456;DHT22;24237;50.106;20.014;2023-10-19T12:24:42;14.40;99.90
38456;DHT22;24237;50.106;20.014;2023-10-19T12:27:09;14.00;99.90
38456;DHT22;24237;50.106;20.014;2023-10-19T12:29:35;14.10;30.80
38456;DHT22;24237;50.106;20.014;2023-10-19T12:32:00;14.30;1.00
38456;DHT22;24237;50.106;20.014;2023-10-19T12:34:26;14.30;1.00
38456;DHT22;24237;50.106;20.014;2023-10-19T12:36:55;14.40;1.00
38456;DHT22;24237;50.106;20.014;2023-10-19T12:39:23;14.50;99.90
38456;DHT22;24237;50.106;20.014;2023-10-19T12:42:01;14.50;1.00
38456;DHT22;24237;50.106;20.014;2023-10-19T12:44:27;14.30;1.00
38456;DHT22;24237;50.106;20.014;2023-10-19T12:46:55;14.30;1.00
38456;DHT22;24237;50.106;20.014;2023-10-19T12:49:22;14.30;1.00
38456;DHT22;24237;50.106;20.014;2023-10-19T12:51:51;14.30;3.60
38456;DHT22;24237;50.106;20.014;2023-10-19T12:54:18;14.60;1.00
38456;DHT22;24237;50.106;20.014;2023-10-19T12:56:43;14.60;1.00
38456;DHT22;24237;50.106;20.014;2023-10-19T12:59:09;14.80;1.00
38456;DHT22;24237;50.106;20.014;2023-10-19T13:01:35;14.80;99.90
38456;DHT22;24237;50.106;20.014;2023-10-19T13:04:01;14.80;99.90
38456;DHT22;24237;50.106;20.014;2023-10-19T13:06:39;14.80;99.90
38456;DHT22;24237;50.106;20.014;2023-10-19T13:09:04;15.00;99.90
38456;DHT22;24237;50.106;20.014;2023-10-19T13:11:30;15.00;99.90
38456;DHT22;24237;50.106;20.014;2023-10-19T13:13:57;14.90;99.90
38456;DHT22;24237;50.106;20.014;2023-10-19T13:16:26;15.00;99.90
38456;DHT22;24237;50.106;20.014;2023-10-19T13:18:53;15.10;1.00
38456;DHT22;24237;50.106;20.014;2023-10-19T13:21:18;15.10;1.00
38456;DHT22;24237;50.106;20.014;2023-10-19T13:23:49;15.20;99.90
38456;DHT22;24237;50.106;20.014;2023-10-19T13:26:14;15.20;99.90
38456;DHT22;24237;50.106;20.014;2023-10-19T13:28:40;15.10;99.90
38456;DHT22;24237;50.106;20.014;2023-10-19T13:31:05;15.10;1.00
38456;DHT22;24237;50.106;20.014;2023-10-19T13:33:34;15.00;1.00
38456;DHT22;24237;50.106;20.014;2023-10-19T13:36:00;15.00;1.00
38456;DHT22;24237;50.106;20.014;2023-10-19T13:38:25;15.00;97.60
38456;DHT22;24237;50.106;20.014;2023-10-19T13:40:51;15.00;79.80
38456;DHT22;24237;50.106;20.014;2023-10-19T13:43:18;15.20;99.90
38456;DHT22;24237;50.106;20.014;2023-10-19T13:45:45;15.10;11.30
38456;DHT22;24237;50.106;20.014;2023-10-19T13:48:12;15.30;1.00
38456;DHT22;24237;50.106;20.014;2023-10-19T13:50:45;15.20;1.00
38456;DHT22;24237;50.106;20.014;2023-10-19T13:53:13;15.20;93.10
38456;DHT22;24237;50.106;20.014;2023-10-19T13:55:39;15.10;99.90
38456;DHT22;24237;50.106;20.014;2023-10-19T13:58:05;15.20;99.90
38456;DHT22;24237;50.106;20.014;2023-10-19T14:00:32;15.10;99.90
38456;DHT22;24237;50.106;20.014;2023-10-19T14:03:08;15.10;99.90
38456;DHT22;24237;50.106;20.014;2023-10-19T14:05:36;14.80;99.90
38456;DHT22;24237;50.106;20.014;2023-10-19T14:08:04;14.80;1.00
38456;DHT22;24237;50.106;20.014;2023-10-19T14:10:30;14.70;1.00
38456;DHT22;24237;50.106;20.014;2023-10-19T14:12:56;14.90;99.90
38456;DHT22;24237;50.106;20.014;2023-10-19T14:15:22;14.70;1.00
38456;DHT22;24237;50.106;20.014;2023-10-19T14:17:48;14.80;1.00
38456;DHT22;24237;50.106;20.014;2023-10-19T14:20:16;15.10;99.90
38456;DHT22;24237;50.106;20.014;2023-10-19T14:22:46;14.90;1.00
38456;DHT22;24237;50.106;20.014;2023-10-19T14:25:13;14.80;1.00
38456;DHT22;24237;50.106;20.014;2023-10-19T14:27:43;14.60;99.80
38456;DHT22;24237;50.106;20.014;2023-10-19T14:30:11;14.70;99.90
38456;DHT22;24237;50.106;20.014;2023-10-19T14:32:41;14.60;99.90
38456;DHT22;24237;50.106;20.014;2023-10-19T14:35:11;14.70;99.90
38456;DHT22;24237;50.106;20.014;2023-10-19T14:37:39;14.40;1.00
38456;DHT22;24237;50.106;20.014;2023-10-19T14:40:09;14.50;1.00
38456;DHT22;24237;50.106;20.014;2023-10-19T14:42:38;14.30;59.90
38456;DHT22;24237;50.106;20.014;2023-10-19T14:45:08;14.30;99.90
38456;DHT22;24237;50.106;20.014;2023-10-19T14:47:38;14.20;99.90
38456;DHT22;24237;50.106;20.014;2023-10-19T14:50:12;14.30;99.90
38456;DHT22;24237;50.106;20.014;2023-10-19T14:52:44;14.30;99.90
38456;DHT22;24237;50.106;20.014;2023-10-19T14:55:10;14.50;99.90
38456;DHT22;24237;50.106;20.014;2023-10-19T14:57:39;14.40;1.00
38456;DHT22;24237;50.106;20.014;2023-10-19T15:00:06;14.30;99.90
38456;DHT22;24237;50.106;20.014;2023-10-19T15:02:47;14.30;99.90
38456;DHT22;24237;50.106;20.014;2023-10-19T15:05:14;14.50;1.00
38456;DHT22;24237;50.106;20.014;2023-10-19T15:07:48;14.50;94.00
38456;DHT22;24237;50.106;20.014;2023-10-19T15:10:24;14.30;99.90
38456;DHT22;24237;50.106;20.014;2023-10-19T15:12:51;14.20;99.90
38456;DHT22;24237;50.106;20.014;2023-10-19T15:15:17;14.10;1.00
38456;DHT22;24237;50.106;20.014;2023-10-19T15:17:46;14.20;99.90
38456;DHT22;24237;50.106;20.014;2023-10-19T15:20:13;14.50;99.90
38456;DHT22;24237;50.106;20.014;2023-10-19T15:22:43;14.50;42.30
38456;DHT22;24237;50.106;20.014;2023-10-19T15:25:13;14.20;99.90
38456;DHT22;24237;50.106;20.014;2023-10-19T15:27:41;14.20;57.90
38456;DHT22;24237;50.106;20.014;2023-10-19T15:30:08;14.30;99.90
38456;DHT22;24237;50.106;20.014;2023-10-19T15:32:35;14.30;1.00
38456;DHT22;24237;50.106;20.014;2023-10-19T15:35:01;14.10;1.00
38456;DHT22;24237;50.106;20.014;2023-10-19T15:37:26;14.30;1.00
38456;DHT22;24237;50.106;20.014;2023-10-19T15:39:52;14.30;99.90
38456;DHT22;24237;50.106;20.014;2023-10-19T15:42:18;14.30;16.70
38456;DHT22;24237;50.106;20.014;2023-10-19T15:44:45;14.20;33.10
38456;DHT22;24237;50.106;20.014;2023-10-19T15:47:13;14.20;99.90
38456;DHT22;24237;50.106;20.014;2023-10-19T15:52:19;14.00;99.90
38456;DHT22;24237;50.106;20.014;2023-10-19T15:54:48;14.20;99.90